PWSweather.com
Personal Weather Stations
Station Observations
SELKIRK1
Ontario, Selkirk, ON N0A 1P0

OntarioSelkirk, ON N0A 1P0

Lat: 42.8083652, Lon: -79.94971040000001

Elevation: 583

Station Type: Acurite 5 in 1

http://gavinsurf.com

High Low Average
Temperature 56.0°F13.3°C 50.9°F10.5°C 53.5°F11.9°C
Dew Point 55.7°F13.2°C 50.6°F10.3°C 53.2°F11.8°C
Winds 5.8 mph 9.3 kmh Calm Calm 3.0 mph E4.8 kmh E
Wind Gusts 10.4 mph16.7 kmh -- 4.0 mph6.4 kmh
Humidity 99% 99% 99%
Pressure 31.87 in1079.2 mb 31.87 in1079.2 mb -
Precipitation 0.38 in9.7 mm - -
Hour Temp Dew Point Humidity Winds Wind Gusts Pressure Precip Precip Rate Daily Precip Total
12:00 AM 55.8°F13.2°C 55.5°F13.1°C 99% 4.6 mph NE7.4 kmh NE 5.8 mph9.3 kmh 31.87 in1079.2 mb - 0.00 in0.0 mm 0.00 in0.0 mm
12:10 AM 55.8°F13.2°C 55.5°F13.1°C 99% 2.3 mph ENE3.7 kmh ENE 3.5 mph5.6 kmh 31.87 in1079.2 mb - 0.00 in0.0 mm 0.00 in0.0 mm
12:15 AM 55.8°F13.2°C 55.5°F13.1°C 99% 3.5 mph ENE5.6 kmh ENE 2.3 mph3.7 kmh 31.87 in1079.2 mb - 0.00 in0.0 mm 0.00 in0.0 mm
12:20 AM 55.8°F13.2°C 55.5°F13.1°C 99% 2.3 mph E3.7 kmh E 2.3 mph3.7 kmh 31.87 in1079.2 mb - 0.00 in0.0 mm 0.00 in0.0 mm
12:25 AM 55.8°F13.2°C 55.5°F13.1°C 99% 2.3 mph E3.7 kmh E 2.3 mph3.7 kmh 31.87 in1079.2 mb - 0.00 in0.0 mm 0.00 in0.0 mm
12:30 AM 55.8°F13.2°C 55.5°F13.1°C 99% 2.3 mph E3.7 kmh E 3.5 mph5.6 kmh 31.87 in1079.2 mb - 0.00 in0.0 mm 0.00 in0.0 mm
12:35 AM 55.8°F13.2°C 55.5°F13.1°C 99% 3.5 mph E5.6 kmh E 3.5 mph5.6 kmh 31.87 in1079.2 mb - 0.00 in0.0 mm 0.00 in0.0 mm
12:40 AM 55.8°F13.2°C 55.5°F13.1°C 99% 3.5 mph ESE5.6 kmh ESE 5.8 mph9.3 kmh 31.87 in1079.2 mb - 0.00 in0.0 mm 0.00 in0.0 mm
12:45 AM 55.8°F13.2°C 55.5°F13.1°C 99% 2.3 mph E3.7 kmh E 3.5 mph5.6 kmh 31.87 in1079.2 mb - 0.00 in0.0 mm 0.00 in0.0 mm
12:50 AM 55.8°F13.2°C 55.5°F13.1°C 99% 2.3 mph E3.7 kmh E 2.3 mph3.7 kmh 31.87 in1079.2 mb - 0.00 in0.0 mm 0.00 in0.0 mm
12:55 AM 55.8°F13.2°C 55.5°F13.1°C 99% 2.3 mph E3.7 kmh E 2.3 mph3.7 kmh 31.87 in1079.2 mb - 0.00 in0.0 mm 0.00 in0.0 mm
01:00 AM 55.8°F13.2°C 55.5°F13.1°C 99% 2.3 mph ENE3.7 kmh ENE 2.3 mph3.7 kmh 31.87 in1079.2 mb - 0.00 in0.0 mm 0.00 in0.0 mm
01:10 AM 55.8°F13.2°C 55.5°F13.1°C 99% 3.5 mph NE5.6 kmh NE 4.6 mph7.4 kmh 31.87 in1079.2 mb - 0.00 in0.0 mm 0.00 in0.0 mm
01:15 AM 55.8°F13.2°C 55.5°F13.1°C 99% 3.5 mph E5.6 kmh E 4.6 mph7.4 kmh 31.87 in1079.2 mb - 0.00 in0.0 mm 0.00 in0.0 mm
01:20 AM 55.8°F13.2°C 55.5°F13.1°C 99% 3.5 mph NE5.6 kmh NE 4.6 mph7.4 kmh 31.87 in1079.2 mb - 0.00 in0.0 mm 0.00 in0.0 mm
01:25 AM 55.8°F13.2°C 55.5°F13.1°C 99% 2.3 mph NE3.7 kmh NE 2.3 mph3.7 kmh 31.87 in1079.2 mb - 0.00 in0.0 mm 0.00 in0.0 mm
01:30 AM 55.8°F13.2°C 55.5°F13.1°C 99% 4.6 mph NE7.4 kmh NE 5.8 mph9.3 kmh 31.87 in1079.2 mb - 0.00 in0.0 mm 0.00 in0.0 mm
01:35 AM 55.8°F13.2°C 55.5°F13.1°C 99% 3.5 mph NE5.6 kmh NE 4.6 mph7.4 kmh 31.87 in1079.2 mb - 0.00 in0.0 mm 0.00 in0.0 mm
01:40 AM 55.8°F13.2°C 55.5°F13.1°C 99% 3.5 mph ENE5.6 kmh ENE 3.5 mph5.6 kmh 31.87 in1079.2 mb - 0.00 in0.0 mm 0.00 in0.0 mm
01:45 AM 55.8°F13.2°C 55.5°F13.1°C 99% 5.8 mph NE9.3 kmh NE 10.4 mph16.7 kmh 31.87 in1079.2 mb - 0.00 in0.0 mm 0.00 in0.0 mm
01:50 AM 55.4°F13.0°C 55.1°F12.8°C 99% 4.6 mph E7.4 kmh E 5.8 mph9.3 kmh 31.87 in1079.2 mb - 0.00 in0.0 mm 0.00 in0.0 mm
01:55 AM 55.4°F13.0°C 55.1°F12.8°C 99% 3.5 mph ENE5.6 kmh ENE 5.8 mph9.3 kmh 31.87 in1079.2 mb - 0.00 in0.0 mm 0.00 in0.0 mm
02:00 AM 55.2°F12.9°C 54.9°F12.7°C 99% 3.5 mph ENE5.6 kmh ENE 5.8 mph9.3 kmh 31.87 in1079.2 mb - 0.00 in0.0 mm 0.00 in0.0 mm
02:10 AM 55.2°F12.9°C 54.9°F12.7°C 99% 2.3 mph E3.7 kmh E 3.5 mph5.6 kmh 31.87 in1079.2 mb - 0.00 in0.0 mm 0.00 in0.0 mm
02:15 AM 55.2°F12.9°C 54.9°F12.7°C 99% 3.5 mph ENE5.6 kmh ENE 4.6 mph7.4 kmh 31.87 in1079.2 mb - 0.00 in0.0 mm 0.00 in0.0 mm
02:20 AM 55.2°F12.9°C 54.9°F12.7°C 99% 2.3 mph NE3.7 kmh NE 4.6 mph7.4 kmh 31.87 in1079.2 mb - 0.00 in0.0 mm 0.00 in0.0 mm
02:25 AM 55.2°F12.9°C 54.9°F12.7°C 99% 2.3 mph ENE3.7 kmh ENE 2.3 mph3.7 kmh 31.87 in1079.2 mb - 0.00 in0.0 mm 0.00 in0.0 mm
02:30 AM 55.2°F12.9°C 54.9°F12.7°C 99% 2.3 mph E3.7 kmh E 3.5 mph5.6 kmh 31.87 in1079.2 mb - 0.00 in0.0 mm 0.00 in0.0 mm
02:35 AM 55.2°F12.9°C 54.9°F12.7°C 99% 3.5 mph E5.6 kmh E 3.5 mph5.6 kmh 31.87 in1079.2 mb - 0.00 in0.0 mm 0.00 in0.0 mm
02:40 AM 55.2°F12.9°C 54.9°F12.7°C 99% 4.6 mph ESE7.4 kmh ESE 4.6 mph7.4 kmh 31.87 in1079.2 mb - 0.00 in0.0 mm 0.00 in0.0 mm
02:45 AM 55.2°F12.9°C 54.9°F12.7°C 99% 3.5 mph E5.6 kmh E 4.6 mph7.4 kmh 31.87 in1079.2 mb - 0.00 in0.0 mm 0.00 in0.0 mm
02:50 AM 55.4°F13.0°C 55.1°F12.8°C 99% 3.5 mph ENE5.6 kmh ENE 5.8 mph9.3 kmh 31.87 in1079.2 mb - 0.00 in0.0 mm 0.00 in0.0 mm
02:55 AM 55.4°F13.0°C 55.1°F12.8°C 99% 3.5 mph E5.6 kmh E 3.5 mph5.6 kmh 31.87 in1079.2 mb - 0.00 in0.0 mm 0.00 in0.0 mm
03:00 AM 55.6°F13.1°C 55.3°F12.9°C 99% 3.5 mph E5.6 kmh E 4.6 mph7.4 kmh 31.87 in1079.2 mb - 0.00 in0.0 mm 0.00 in0.0 mm
03:10 AM 55.6°F13.1°C 55.3°F12.9°C 99% 2.3 mph E3.7 kmh E 4.6 mph7.4 kmh 31.87 in1079.2 mb - 0.00 in0.0 mm 0.00 in0.0 mm
03:15 AM 55.6°F13.1°C 55.3°F12.9°C 99% 2.3 mph E3.7 kmh E 2.3 mph3.7 kmh 31.87 in1079.2 mb - 0.00 in0.0 mm 0.00 in0.0 mm
03:20 AM 55.6°F13.1°C 55.3°F12.9°C 99% 2.3 mph E3.7 kmh E 2.3 mph3.7 kmh 31.87 in1079.2 mb - 0.00 in0.0 mm 0.00 in0.0 mm
03:25 AM 55.6°F13.1°C 55.3°F12.9°C 99% 2.3 mph E3.7 kmh E 2.3 mph3.7 kmh 31.87 in1079.2 mb - 0.00 in0.0 mm 0.00 in0.0 mm
03:30 AM 55.6°F13.1°C 55.3°F12.9°C 99% 2.3 mph E3.7 kmh E 3.5 mph5.6 kmh 31.87 in1079.2 mb - 0.00 in0.0 mm 0.00 in0.0 mm
03:35 AM 55.6°F13.1°C 55.3°F12.9°C 99% 2.3 mph E3.7 kmh E 3.5 mph5.6 kmh 31.87 in1079.2 mb - 0.00 in0.0 mm 0.00 in0.0 mm
03:40 AM 55.6°F13.1°C 55.3°F12.9°C 99% 2.3 mph E3.7 kmh E 3.5 mph5.6 kmh 31.87 in1079.2 mb - 0.00 in0.0 mm 0.00 in0.0 mm
03:45 AM 55.6°F13.1°C 55.3°F12.9°C 99% 2.3 mph ENE3.7 kmh ENE 3.5 mph5.6 kmh 31.87 in1079.2 mb - 0.00 in0.0 mm 0.00 in0.0 mm
03:50 AM 55.6°F13.1°C 55.3°F12.9°C 99% 1.2 mph NE1.9 kmh NE 2.3 mph3.7 kmh 31.87 in1079.2 mb - 0.00 in0.0 mm 0.00 in0.0 mm
03:55 AM 55.6°F13.1°C 55.3°F12.9°C 99% 2.3 mph E3.7 kmh E 2.3 mph3.7 kmh 31.87 in1079.2 mb - 0.00 in0.0 mm 0.00 in0.0 mm
04:00 AM 55.6°F13.1°C 55.3°F12.9°C 99% 3.5 mph E5.6 kmh E 3.5 mph5.6 kmh 31.87 in1079.2 mb - 0.00 in0.0 mm 0.00 in0.0 mm
04:10 AM 55.8°F13.2°C 55.5°F13.1°C 99% 3.5 mph E5.6 kmh E 3.5 mph5.6 kmh 31.87 in1079.2 mb - 0.00 in0.0 mm 0.00 in0.0 mm
04:15 AM 55.8°F13.2°C 55.5°F13.1°C 99% 3.5 mph E5.6 kmh E 4.6 mph7.4 kmh 31.87 in1079.2 mb - 0.00 in0.0 mm 0.00 in0.0 mm
04:20 AM 55.8°F13.2°C 55.5°F13.1°C 99% 3.5 mph E5.6 kmh E 3.5 mph5.6 kmh 31.87 in1079.2 mb - 0.00 in0.0 mm 0.00 in0.0 mm
04:25 AM 56.0°F13.3°C 55.7°F13.2°C 99% 2.3 mph E3.7 kmh E 2.3 mph3.7 kmh 31.87 in1079.2 mb - 0.00 in0.0 mm 0.00 in0.0 mm
04:30 AM 56.0°F13.3°C 55.7°F13.2°C 99% 3.5 mph E5.6 kmh E 3.5 mph5.6 kmh 31.87 in1079.2 mb - 0.00 in0.0 mm 0.00 in0.0 mm
04:35 AM 56.0°F13.3°C 55.7°F13.2°C 99% 2.3 mph E3.7 kmh E 3.5 mph5.6 kmh 31.87 in1079.2 mb - 0.00 in0.0 mm 0.00 in0.0 mm
04:40 AM 56.0°F13.3°C 55.7°F13.2°C 99% 3.5 mph E5.6 kmh E 4.6 mph7.4 kmh 31.87 in1079.2 mb - 0.00 in0.0 mm 0.00 in0.0 mm
04:45 AM 56.0°F13.3°C 55.7°F13.2°C 99% 3.5 mph E5.6 kmh E 3.5 mph5.6 kmh 31.87 in1079.2 mb - 0.00 in0.0 mm 0.00 in0.0 mm
04:50 AM 56.0°F13.3°C 55.7°F13.2°C 99% 2.3 mph E3.7 kmh E 3.5 mph5.6 kmh 31.87 in1079.2 mb - 0.00 in0.0 mm 0.00 in0.0 mm
04:55 AM 56.0°F13.3°C 55.7°F13.2°C 99% 2.3 mph E3.7 kmh E 2.3 mph3.7 kmh 31.87 in1079.2 mb - 0.00 in0.0 mm 0.00 in0.0 mm
05:00 AM 56.0°F13.3°C 55.7°F13.2°C 99% 4.6 mph NNE7.4 kmh NNE 6.9 mph11.1 kmh 31.87 in1079.2 mb - 0.00 in0.0 mm 0.00 in0.0 mm
05:10 AM 56.0°F13.3°C 55.7°F13.2°C 99% 3.5 mph ENE5.6 kmh ENE 3.5 mph5.6 kmh 31.87 in1079.2 mb - 0.00 in0.0 mm 0.00 in0.0 mm
05:15 AM 56.0°F13.3°C 55.7°F13.2°C 99% 3.5 mph NE5.6 kmh NE 3.5 mph5.6 kmh 31.87 in1079.2 mb - 0.00 in0.0 mm 0.00 in0.0 mm
05:20 AM 56.0°F13.3°C 55.7°F13.2°C 99% 3.5 mph E5.6 kmh E 4.6 mph7.4 kmh 31.87 in1079.2 mb - 0.00 in0.0 mm 0.00 in0.0 mm
05:25 AM 55.8°F13.2°C 55.5°F13.1°C 99% 3.5 mph ENE5.6 kmh ENE 3.5 mph5.6 kmh 31.87 in1079.2 mb - 0.00 in0.0 mm 0.00 in0.0 mm
05:30 AM 55.8°F13.2°C 55.5°F13.1°C 99% 3.5 mph NE5.6 kmh NE 4.6 mph7.4 kmh 31.87 in1079.2 mb - 0.00 in0.0 mm 0.00 in0.0 mm
05:35 AM 55.8°F13.2°C 55.5°F13.1°C 99% 3.5 mph NE5.6 kmh NE 5.8 mph9.3 kmh 31.87 in1079.2 mb - 0.00 in0.0 mm 0.00 in0.0 mm
05:40 AM 55.8°F13.2°C 55.5°F13.1°C 99% 3.5 mph E5.6 kmh E 6.9 mph11.1 kmh 31.87 in1079.2 mb - 0.00 in0.0 mm 0.00 in0.0 mm
05:45 AM 55.8°F13.2°C 55.5°F13.1°C 99% 3.5 mph NE5.6 kmh NE 4.6 mph7.4 kmh 31.87 in1079.2 mb - 0.00 in0.0 mm 0.00 in0.0 mm
05:50 AM 55.8°F13.2°C 55.5°F13.1°C 99% 3.5 mph ENE5.6 kmh ENE 4.6 mph7.4 kmh 31.87 in1079.2 mb - 0.00 in0.0 mm 0.00 in0.0 mm
05:55 AM 55.8°F13.2°C 55.5°F13.1°C 99% 3.5 mph E5.6 kmh E 5.8 mph9.3 kmh 31.87 in1079.2 mb - 0.00 in0.0 mm 0.00 in0.0 mm
06:00 AM 55.8°F13.2°C 55.5°F13.1°C 99% 3.5 mph NE5.6 kmh NE 4.6 mph7.4 kmh 31.87 in1079.2 mb - 0.00 in0.0 mm 0.00 in0.0 mm
06:10 AM 55.6°F13.1°C 55.3°F12.9°C 99% 3.5 mph NE5.6 kmh NE 4.6 mph7.4 kmh 31.87 in1079.2 mb - 0.00 in0.0 mm 0.00 in0.0 mm
06:15 AM 55.6°F13.1°C 55.3°F12.9°C 99% 3.5 mph E5.6 kmh E 3.5 mph5.6 kmh 31.87 in1079.2 mb - 0.00 in0.0 mm 0.00 in0.0 mm
06:20 AM 55.4°F13.0°C 55.1°F12.8°C 99% 3.5 mph ENE5.6 kmh ENE 4.6 mph7.4 kmh 31.87 in1079.2 mb - 0.00 in0.0 mm 0.00 in0.0 mm
06:25 AM 55.4°F13.0°C 55.1°F12.8°C 99% 3.5 mph NE5.6 kmh NE 8.1 mph13.0 kmh 31.87 in1079.2 mb - 0.00 in0.0 mm 0.00 in0.0 mm
06:30 AM 55.0°F12.8°C 54.7°F12.6°C 99% 4.6 mph E7.4 kmh E 5.8 mph9.3 kmh 31.87 in1079.2 mb - 0.00 in0.0 mm 0.00 in0.0 mm
06:35 AM 54.7°F12.6°C 54.4°F12.4°C 99% 2.3 mph E3.7 kmh E 3.5 mph5.6 kmh 31.87 in1079.2 mb - 0.00 in0.0 mm 0.00 in0.0 mm
06:40 AM 54.3°F12.4°C 54.0°F12.2°C 99% 3.5 mph E5.6 kmh E 3.5 mph5.6 kmh 31.87 in1079.2 mb - 0.00 in0.0 mm 0.00 in0.0 mm
06:45 AM 54.3°F12.4°C 54.0°F12.2°C 99% 3.5 mph ENE5.6 kmh ENE 5.8 mph9.3 kmh 31.87 in1079.2 mb - 0.00 in0.0 mm 0.00 in0.0 mm
06:50 AM 54.2°F12.3°C 53.9°F12.2°C 99% 3.5 mph E5.6 kmh E 4.6 mph7.4 kmh 31.87 in1079.2 mb - 0.00 in0.0 mm 0.00 in0.0 mm
06:55 AM 54.0°F12.2°C 53.7°F12.1°C 99% 3.5 mph NE5.6 kmh NE 3.5 mph5.6 kmh 31.87 in1079.2 mb - 0.00 in0.0 mm 0.00 in0.0 mm
07:00 AM 54.0°F12.2°C 53.7°F12.1°C 99% 3.5 mph ENE5.6 kmh ENE 3.5 mph5.6 kmh 31.87 in1079.2 mb - 0.00 in0.0 mm 0.00 in0.0 mm
07:10 AM 53.8°F12.1°C 53.5°F11.9°C 99% 3.5 mph NE5.6 kmh NE 4.6 mph7.4 kmh 31.87 in1079.2 mb - 0.00 in0.0 mm 0.00 in0.0 mm
07:15 AM 53.8°F12.1°C 53.5°F11.9°C 99% 3.5 mph E5.6 kmh E 4.6 mph7.4 kmh 31.87 in1079.2 mb - 0.00 in0.0 mm 0.00 in0.0 mm
07:20 AM 53.8°F12.1°C 53.5°F11.9°C 99% 2.3 mph E3.7 kmh E 2.3 mph3.7 kmh 31.87 in1079.2 mb - 0.00 in0.0 mm 0.00 in0.0 mm
07:25 AM 53.8°F12.1°C 53.5°F11.9°C 99% 3.5 mph E5.6 kmh E 3.5 mph5.6 kmh 31.87 in1079.2 mb - 0.00 in0.0 mm 0.00 in0.0 mm
07:30 AM 53.8°F12.1°C 53.5°F11.9°C 99% 3.5 mph E5.6 kmh E 3.5 mph5.6 kmh 31.87 in1079.2 mb - 0.00 in0.0 mm 0.00 in0.0 mm
07:35 AM 53.8°F12.1°C 53.5°F11.9°C 99% 2.3 mph ESE3.7 kmh ESE 3.5 mph5.6 kmh 31.87 in1079.2 mb - 0.00 in0.0 mm 0.00 in0.0 mm
07:40 AM 54.0°F12.2°C 53.7°F12.1°C 99% 3.5 mph E5.6 kmh E 3.5 mph5.6 kmh 31.87 in1079.2 mb - 0.00 in0.0 mm 0.00 in0.0 mm
07:45 AM 54.1°F12.3°C 53.9°F12.2°C 99% 2.3 mph E3.7 kmh E 3.5 mph5.6 kmh 31.87 in1079.2 mb - 0.00 in0.0 mm 0.00 in0.0 mm
07:50 AM 54.2°F12.3°C 53.9°F12.2°C 99% 3.5 mph E5.6 kmh E 3.5 mph5.6 kmh 31.87 in1079.2 mb - 0.00 in0.0 mm 0.00 in0.0 mm
07:55 AM 54.2°F12.3°C 53.9°F12.2°C 99% 2.3 mph NE3.7 kmh NE 2.3 mph3.7 kmh 31.87 in1079.2 mb - 0.00 in0.0 mm 0.00 in0.0 mm
08:00 AM 54.3°F12.4°C 54.0°F12.2°C 99% 2.3 mph E3.7 kmh E 2.3 mph3.7 kmh 31.87 in1079.2 mb - 0.00 in0.0 mm 0.00 in0.0 mm
08:10 AM 54.3°F12.4°C 54.0°F12.2°C 99% 3.5 mph E5.6 kmh E 3.5 mph5.6 kmh 31.87 in1079.2 mb - 0.06 in1.5 mm 0.06 in1.5 mm
08:15 AM 54.5°F12.5°C 54.2°F12.3°C 99% 3.5 mph E5.6 kmh E 4.6 mph7.4 kmh 31.87 in1079.2 mb - 0.10 in2.5 mm 0.10 in2.5 mm
08:20 AM 54.7°F12.6°C 54.4°F12.4°C 99% 4.6 mph E7.4 kmh E 4.6 mph7.4 kmh 31.87 in1079.2 mb - 0.12 in3.0 mm 0.12 in3.0 mm
08:25 AM 54.9°F12.7°C 54.6°F12.6°C 99% 3.5 mph E5.6 kmh E 3.5 mph5.6 kmh 31.87 in1079.2 mb - 0.15 in3.8 mm 0.16 in4.1 mm
08:30 AM 54.9°F12.7°C 54.6°F12.6°C 99% 3.5 mph E5.6 kmh E 4.6 mph7.4 kmh 31.87 in1079.2 mb - 0.16 in4.1 mm 0.16 in4.1 mm
08:35 AM 54.9°F12.7°C 54.6°F12.6°C 99% 2.3 mph ENE3.7 kmh ENE 2.3 mph3.7 kmh 31.87 in1079.2 mb - 0.16 in4.1 mm 0.16 in4.1 mm
08:40 AM 54.7°F12.6°C 54.4°F12.4°C 99% 2.3 mph E3.7 kmh E 3.5 mph5.6 kmh 31.87 in1079.2 mb - 0.16 in4.1 mm 0.16 in4.1 mm
08:45 AM 54.7°F12.6°C 54.4°F12.4°C 99% 2.3 mph ENE3.7 kmh ENE 2.3 mph3.7 kmh 31.87 in1079.2 mb - 0.16 in4.1 mm 0.16 in4.1 mm
08:50 AM 54.7°F12.6°C 54.4°F12.4°C 99% 2.3 mph E3.7 kmh E 3.5 mph5.6 kmh 31.87 in1079.2 mb - 0.17 in4.3 mm 0.17 in4.3 mm
08:55 AM 54.7°F12.6°C 54.4°F12.4°C 99% 2.3 mph NE3.7 kmh NE 3.5 mph5.6 kmh 31.87 in1079.2 mb - 0.17 in4.3 mm 0.17 in4.3 mm
09:00 AM 54.7°F12.6°C 54.4°F12.4°C 99% 2.3 mph NNE3.7 kmh NNE 3.5 mph5.6 kmh 31.87 in1079.2 mb - 0.17 in4.3 mm 0.17 in4.3 mm
09:10 AM 54.7°F12.6°C 54.4°F12.4°C 99% 4.6 mph N7.4 kmh N 4.6 mph7.4 kmh 31.87 in1079.2 mb - 0.14 in3.6 mm 0.18 in4.6 mm
09:15 AM 54.5°F12.5°C 54.2°F12.3°C 99% 4.6 mph NE7.4 kmh NE 6.9 mph11.1 kmh 31.87 in1079.2 mb - 0.08 in2.0 mm 0.18 in4.6 mm
09:20 AM 54.3°F12.4°C 54.0°F12.2°C 99% 3.5 mph E5.6 kmh E 3.5 mph5.6 kmh 31.87 in1079.2 mb - 0.06 in1.5 mm 0.18 in4.6 mm
09:25 AM 54.3°F12.4°C 54.0°F12.2°C 99% 2.3 mph NE3.7 kmh NE 3.5 mph5.6 kmh 31.87 in1079.2 mb - 0.04 in1.0 mm 0.19 in4.8 mm
09:30 AM 54.3°F12.4°C 54.0°F12.2°C 99% 3.5 mph NE5.6 kmh NE 4.6 mph7.4 kmh 31.87 in1079.2 mb - 0.04 in1.0 mm 0.20 in5.1 mm
09:35 AM 54.2°F12.3°C 53.9°F12.2°C 99% 3.5 mph NNE5.6 kmh NNE 4.6 mph7.4 kmh 31.87 in1079.2 mb - 0.04 in1.0 mm 0.20 in5.1 mm
09:40 AM 54.2°F12.3°C 53.9°F12.2°C 99% 3.5 mph NE5.6 kmh NE 5.8 mph9.3 kmh 31.87 in1079.2 mb - 0.05 in1.3 mm 0.21 in5.3 mm
09:45 AM 54.2°F12.3°C 53.9°F12.2°C 99% 3.5 mph ENE5.6 kmh ENE 4.6 mph7.4 kmh 31.87 in1079.2 mb - 0.05 in1.3 mm 0.21 in5.3 mm
09:50 AM 54.2°F12.3°C 53.9°F12.2°C 99% 3.5 mph NE5.6 kmh NE 4.6 mph7.4 kmh 31.87 in1079.2 mb - 0.05 in1.3 mm 0.21 in5.3 mm
09:55 AM 54.0°F12.2°C 53.7°F12.1°C 99% 2.3 mph ENE3.7 kmh ENE 3.5 mph5.6 kmh 31.87 in1079.2 mb - 0.05 in1.3 mm 0.22 in5.6 mm
10:00 AM 54.0°F12.2°C 53.7°F12.1°C 99% 2.3 mph E3.7 kmh E 3.5 mph5.6 kmh 31.87 in1079.2 mb - 0.05 in1.3 mm 0.22 in5.6 mm
10:10 AM 53.8°F12.1°C 53.5°F11.9°C 99% 2.3 mph NE3.7 kmh NE 3.5 mph5.6 kmh 31.87 in1079.2 mb - 0.07 in1.8 mm 0.25 in6.4 mm
10:15 AM 53.8°F12.1°C 53.5°F11.9°C 99% 2.3 mph E3.7 kmh E 3.5 mph5.6 kmh 31.87 in1079.2 mb - 0.08 in2.0 mm 0.26 in6.6 mm
10:20 AM 53.6°F12.0°C 53.3°F11.8°C 99% 3.5 mph E5.6 kmh E 3.5 mph5.6 kmh 31.87 in1079.2 mb - 0.08 in2.0 mm 0.26 in6.6 mm
10:25 AM 53.4°F11.9°C 53.1°F11.7°C 99% 3.5 mph E5.6 kmh E 3.5 mph5.6 kmh 31.87 in1079.2 mb - 0.10 in2.5 mm 0.28 in7.1 mm
10:30 AM 53.4°F11.9°C 53.1°F11.7°C 99% 3.5 mph E5.6 kmh E 4.6 mph7.4 kmh 31.87 in1079.2 mb - 0.10 in2.5 mm 0.30 in7.6 mm
10:35 AM 53.4°F11.9°C 53.1°F11.7°C 99% 3.5 mph ENE5.6 kmh ENE 4.6 mph7.4 kmh 31.87 in1079.2 mb - 0.11 in2.8 mm 0.31 in7.9 mm
10:40 AM 53.3°F11.8°C 53.0°F11.7°C 99% 3.5 mph ENE5.6 kmh ENE 3.5 mph5.6 kmh 31.87 in1079.2 mb - 0.11 in2.8 mm 0.32 in8.1 mm
10:45 AM 53.3°F11.8°C 53.0°F11.7°C 99% 4.6 mph E7.4 kmh E 4.6 mph7.4 kmh 31.87 in1079.2 mb - 0.13 in3.3 mm 0.34 in8.6 mm
10:50 AM 53.6°F12.0°C 53.3°F11.8°C 99% 3.5 mph E5.6 kmh E 4.6 mph7.4 kmh 31.87 in1079.2 mb - 0.13 in3.3 mm 0.34 in8.6 mm
10:55 AM 53.8°F12.1°C 53.5°F11.9°C 99% 3.5 mph E5.6 kmh E 4.6 mph7.4 kmh 31.87 in1079.2 mb - 0.12 in3.0 mm 0.34 in8.6 mm
11:00 AM 54.0°F12.2°C 53.7°F12.1°C 99% 4.6 mph E7.4 kmh E 4.6 mph7.4 kmh 31.87 in1079.2 mb - 0.12 in3.0 mm 0.34 in8.6 mm
11:10 AM 54.3°F12.4°C 54.0°F12.2°C 99% 4.6 mph NE7.4 kmh NE 4.6 mph7.4 kmh 31.87 in1079.2 mb - 0.09 in2.3 mm 0.34 in8.6 mm
11:15 AM 54.3°F12.4°C 54.0°F12.2°C 99% 3.5 mph E5.6 kmh E 4.6 mph7.4 kmh 31.87 in1079.2 mb - 0.08 in2.0 mm 0.34 in8.6 mm
11:20 AM 54.2°F12.3°C 54.0°F12.2°C 99% 3.5 mph E5.6 kmh E 5.8 mph9.3 kmh 31.87 in1079.2 mb - 0.08 in2.0 mm 0.34 in8.6 mm
11:25 AM 54.2°F12.3°C 53.9°F12.2°C 99% 4.6 mph NE7.4 kmh NE 4.6 mph7.4 kmh 31.87 in1079.2 mb - 0.06 in1.5 mm 0.34 in8.6 mm
11:30 AM 54.2°F12.3°C 53.9°F12.2°C 99% 2.3 mph E3.7 kmh E 3.5 mph5.6 kmh 31.87 in1079.2 mb - 0.04 in1.0 mm 0.34 in8.6 mm
11:35 AM 54.2°F12.3°C 53.9°F12.2°C 99% 4.6 mph ENE7.4 kmh ENE 4.6 mph7.4 kmh 31.87 in1079.2 mb - 0.03 in0.8 mm 0.34 in8.6 mm
11:40 AM 54.3°F12.4°C 54.0°F12.2°C 99% 2.3 mph NE3.7 kmh NE 3.5 mph5.6 kmh 31.87 in1079.2 mb - 0.02 in0.5 mm 0.34 in8.6 mm
11:45 AM 54.3°F12.4°C 54.0°F12.2°C 99% 2.3 mph ENE3.7 kmh ENE 2.3 mph3.7 kmh 31.87 in1079.2 mb - 0.00 in0.0 mm 0.34 in8.6 mm
11:50 AM 54.5°F12.5°C 54.2°F12.3°C 99% 3.5 mph E5.6 kmh E 3.5 mph5.6 kmh 31.87 in1079.2 mb - 0.00 in0.0 mm 0.34 in8.6 mm
11:55 AM 54.5°F12.5°C 54.2°F12.3°C 99% 3.5 mph E5.6 kmh E 4.6 mph7.4 kmh 31.87 in1079.2 mb - 0.00 in0.0 mm 0.34 in8.6 mm
12:00 PM 54.5°F12.5°C 54.2°F12.3°C 99% 3.5 mph E5.6 kmh E 4.6 mph7.4 kmh 31.87 in1079.2 mb - 0.00 in0.0 mm 0.34 in8.6 mm
12:10 PM 54.3°F12.4°C 54.0°F12.2°C 99% 3.5 mph E5.6 kmh E 5.8 mph9.3 kmh 31.87 in1079.2 mb - 0.00 in0.0 mm 0.34 in8.6 mm
12:15 PM 54.3°F12.4°C 54.0°F12.2°C 99% 2.3 mph E3.7 kmh E 4.6 mph7.4 kmh 31.87 in1079.2 mb - 0.00 in0.0 mm 0.34 in8.6 mm
12:20 PM 54.3°F12.4°C 54.0°F12.2°C 99% 3.5 mph E5.6 kmh E 3.5 mph5.6 kmh 31.87 in1079.2 mb - 0.00 in0.0 mm 0.34 in8.6 mm
12:25 PM 54.5°F12.5°C 54.2°F12.3°C 99% 3.5 mph E5.6 kmh E 4.6 mph7.4 kmh 31.87 in1079.2 mb - 0.00 in0.0 mm 0.34 in8.6 mm
12:30 PM 54.5°F12.5°C 54.2°F12.3°C 99% 3.5 mph ENE5.6 kmh ENE 3.5 mph5.6 kmh 31.87 in1079.2 mb - 0.00 in0.0 mm 0.34 in8.6 mm
12:35 PM 54.5°F12.5°C 54.2°F12.3°C 99% 3.5 mph NE5.6 kmh NE 3.5 mph5.6 kmh 31.87 in1079.2 mb - 0.00 in0.0 mm 0.34 in8.6 mm
12:40 PM 54.3°F12.4°C 54.0°F12.2°C 99% 3.5 mph ENE5.6 kmh ENE 3.5 mph5.6 kmh 31.87 in1079.2 mb - 0.01 in0.3 mm 0.35 in8.9 mm
12:45 PM 54.3°F12.4°C 54.0°F12.2°C 99% 2.3 mph NE3.7 kmh NE 5.8 mph9.3 kmh 31.87 in1079.2 mb - 0.02 in0.5 mm 0.36 in9.1 mm
12:50 PM 54.2°F12.3°C 53.9°F12.2°C 99% 3.5 mph E5.6 kmh E 4.6 mph7.4 kmh 31.87 in1079.2 mb - 0.02 in0.5 mm 0.36 in9.1 mm
12:55 PM 54.0°F12.2°C 53.7°F12.1°C 99% 2.3 mph E3.7 kmh E 3.5 mph5.6 kmh 31.87 in1079.2 mb - 0.02 in0.5 mm 0.36 in9.1 mm
01:00 PM 54.0°F12.2°C 53.7°F12.1°C 99% 3.5 mph E5.6 kmh E 4.6 mph7.4 kmh 31.87 in1079.2 mb - 0.02 in0.5 mm 0.36 in9.1 mm
01:10 PM 53.8°F12.1°C 53.5°F11.9°C 99% 4.6 mph E7.4 kmh E 4.6 mph7.4 kmh 31.87 in1079.2 mb - 0.02 in0.5 mm 0.36 in9.1 mm
01:15 PM 53.8°F12.1°C 53.5°F11.9°C 99% 3.5 mph ENE5.6 kmh ENE 3.5 mph5.6 kmh 31.87 in1079.2 mb - 0.03 in0.8 mm 0.37 in9.4 mm
01:20 PM 53.8°F12.1°C 53.5°F11.9°C 99% 4.6 mph ENE7.4 kmh ENE 4.6 mph7.4 kmh 31.87 in1079.2 mb - 0.03 in0.8 mm 0.37 in9.4 mm
01:25 PM 53.8°F12.1°C 53.5°F11.9°C 99% 3.5 mph E5.6 kmh E 4.6 mph7.4 kmh 31.87 in1079.2 mb - 0.03 in0.8 mm 0.37 in9.4 mm
01:30 PM 53.8°F12.1°C 53.5°F11.9°C 99% 3.5 mph ENE5.6 kmh ENE 3.5 mph5.6 kmh 31.87 in1079.2 mb - 0.03 in0.8 mm 0.37 in9.4 mm
01:35 PM 53.6°F12.0°C 53.3°F11.8°C 99% 3.5 mph E5.6 kmh E 3.5 mph5.6 kmh 31.87 in1079.2 mb - 0.03 in0.8 mm 0.37 in9.4 mm
01:40 PM 53.6°F12.0°C 53.3°F11.8°C 99% 3.5 mph NE5.6 kmh NE 4.6 mph7.4 kmh 31.87 in1079.2 mb - 0.02 in0.5 mm 0.37 in9.4 mm
01:45 PM 53.4°F11.9°C 53.1°F11.7°C 99% 3.5 mph E5.6 kmh E 3.5 mph5.6 kmh 31.87 in1079.2 mb - 0.01 in0.3 mm 0.37 in9.4 mm
01:50 PM 53.1°F11.7°C 52.9°F11.6°C 99% 4.6 mph E7.4 kmh E 5.8 mph9.3 kmh 31.87 in1079.2 mb - 0.01 in0.3 mm 0.37 in9.4 mm
01:55 PM 52.9°F11.6°C 52.6°F11.4°C 99% 4.6 mph E7.4 kmh E 4.6 mph7.4 kmh 31.87 in1079.2 mb - 0.01 in0.3 mm 0.37 in9.4 mm
02:00 PM 52.7°F11.5°C 52.4°F11.3°C 99% 4.6 mph E7.4 kmh E 5.8 mph9.3 kmh 31.87 in1079.2 mb - 0.01 in0.3 mm 0.37 in9.4 mm
02:10 PM 52.9°F11.6°C 52.6°F11.4°C 99% 4.6 mph E7.4 kmh E 5.8 mph9.3 kmh 31.87 in1079.2 mb - 0.01 in0.3 mm 0.37 in9.4 mm
02:15 PM 52.9°F11.6°C 52.6°F11.4°C 99% 4.6 mph E7.4 kmh E 5.8 mph9.3 kmh 31.87 in1079.2 mb - 0.00 in0.0 mm 0.37 in9.4 mm
02:20 PM 52.9°F11.6°C 52.6°F11.4°C 99% 3.5 mph E5.6 kmh E 5.8 mph9.3 kmh 31.87 in1079.2 mb - 0.00 in0.0 mm 0.37 in9.4 mm
02:25 PM 52.9°F11.6°C 52.6°F11.4°C 99% 3.5 mph E5.6 kmh E 4.6 mph7.4 kmh 31.87 in1079.2 mb - 0.00 in0.0 mm 0.37 in9.4 mm
02:30 PM 52.7°F11.5°C 52.4°F11.3°C 99% 3.5 mph E5.6 kmh E 3.5 mph5.6 kmh 31.87 in1079.2 mb - 0.00 in0.0 mm 0.37 in9.4 mm
02:35 PM 52.7°F11.5°C 52.4°F11.3°C 99% 3.5 mph E5.6 kmh E 4.6 mph7.4 kmh 31.87 in1079.2 mb - 0.00 in0.0 mm 0.37 in9.4 mm
02:40 PM 52.5°F11.4°C 52.2°F11.2°C 99% 4.6 mph NE7.4 kmh NE 4.6 mph7.4 kmh 31.87 in1079.2 mb - 0.00 in0.0 mm 0.37 in9.4 mm
02:45 PM 52.5°F11.4°C 52.2°F11.2°C 99% 3.5 mph E5.6 kmh E 5.8 mph9.3 kmh 31.87 in1079.2 mb - 0.00 in0.0 mm 0.37 in9.4 mm
02:50 PM 52.5°F11.4°C 52.2°F11.2°C 99% 3.5 mph E5.6 kmh E 4.6 mph7.4 kmh 31.87 in1079.2 mb - 0.00 in0.0 mm 0.37 in9.4 mm
02:55 PM 52.5°F11.4°C 52.2°F11.2°C 99% 3.5 mph E5.6 kmh E 4.6 mph7.4 kmh 31.87 in1079.2 mb - 0.00 in0.0 mm 0.37 in9.4 mm
03:00 PM 52.5°F11.4°C 52.2°F11.2°C 99% 4.6 mph E7.4 kmh E 5.8 mph9.3 kmh 31.87 in1079.2 mb - 0.00 in0.0 mm 0.37 in9.4 mm
03:10 PM 52.5°F11.4°C 52.2°F11.2°C 99% 3.5 mph E5.6 kmh E 3.5 mph5.6 kmh 31.87 in1079.2 mb - 0.00 in0.0 mm 0.37 in9.4 mm
03:15 PM 52.5°F11.4°C 52.2°F11.2°C 99% 2.3 mph E3.7 kmh E 3.5 mph5.6 kmh 31.87 in1079.2 mb - 0.00 in0.0 mm 0.37 in9.4 mm
03:20 PM 52.7°F11.5°C 52.4°F11.3°C 99% 2.3 mph NE3.7 kmh NE 3.5 mph5.6 kmh 31.87 in1079.2 mb - 0.00 in0.0 mm 0.37 in9.4 mm
03:25 PM 52.5°F11.4°C 52.2°F11.2°C 99% 4.6 mph E7.4 kmh E 4.6 mph7.4 kmh 31.87 in1079.2 mb - 0.00 in0.0 mm 0.37 in9.4 mm
03:30 PM 52.5°F11.4°C 52.2°F11.2°C 99% 2.3 mph NE3.7 kmh NE 2.3 mph3.7 kmh 31.87 in1079.2 mb - 0.00 in0.0 mm 0.37 in9.4 mm
03:35 PM 52.5°F11.4°C 52.2°F11.2°C 99% 2.3 mph E3.7 kmh E 3.5 mph5.6 kmh 31.87 in1079.2 mb - 0.00 in0.0 mm 0.37 in9.4 mm
03:40 PM 52.5°F11.4°C 52.2°F11.2°C 99% 3.5 mph E5.6 kmh E 5.8 mph9.3 kmh 31.87 in1079.2 mb - 0.00 in0.0 mm 0.37 in9.4 mm
03:45 PM 52.4°F11.3°C 52.1°F11.2°C 99% 3.5 mph ENE5.6 kmh ENE 3.5 mph5.6 kmh 31.87 in1079.2 mb - 0.00 in0.0 mm 0.37 in9.4 mm
03:50 PM 52.4°F11.3°C 52.1°F11.2°C 99% 3.5 mph NE5.6 kmh NE 3.5 mph5.6 kmh 31.87 in1079.2 mb - 0.00 in0.0 mm 0.37 in9.4 mm
03:55 PM 52.2°F11.2°C 51.9°F11.1°C 99% 3.5 mph NE5.6 kmh NE 4.6 mph7.4 kmh 31.87 in1079.2 mb - 0.00 in0.0 mm 0.37 in9.4 mm
04:00 PM 52.2°F11.2°C 51.9°F11.1°C 99% 2.3 mph E3.7 kmh E 2.3 mph3.7 kmh 31.87 in1079.2 mb - 0.00 in0.0 mm 0.37 in9.4 mm
04:10 PM 52.2°F11.2°C 51.9°F11.1°C 99% 2.3 mph NE3.7 kmh NE 2.3 mph3.7 kmh 31.87 in1079.2 mb - 0.00 in0.0 mm 0.37 in9.4 mm
04:15 PM 52.2°F11.2°C 51.9°F11.1°C 99% 3.5 mph E5.6 kmh E 4.6 mph7.4 kmh 31.87 in1079.2 mb - 0.00 in0.0 mm 0.37 in9.4 mm
04:20 PM 52.0°F11.1°C 51.7°F10.9°C 99% 3.5 mph NE5.6 kmh NE 4.6 mph7.4 kmh 31.87 in1079.2 mb - 0.00 in0.0 mm 0.37 in9.4 mm
04:25 PM 52.0°F11.1°C 51.7°F10.9°C 99% 3.5 mph ENE5.6 kmh ENE 3.5 mph5.6 kmh 31.87 in1079.2 mb - 0.00 in0.0 mm 0.37 in9.4 mm
04:30 PM 52.0°F11.1°C 51.7°F10.9°C 99% 3.5 mph E5.6 kmh E 3.5 mph5.6 kmh 31.87 in1079.2 mb - 0.00 in0.0 mm 0.37 in9.4 mm
04:35 PM 52.0°F11.1°C 51.7°F10.9°C 99% 3.5 mph NE5.6 kmh NE 4.6 mph7.4 kmh 31.87 in1079.2 mb - 0.00 in0.0 mm 0.37 in9.4 mm
04:40 PM 52.0°F11.1°C 51.7°F10.9°C 99% 3.5 mph E5.6 kmh E 4.6 mph7.4 kmh 31.87 in1079.2 mb - 0.00 in0.0 mm 0.37 in9.4 mm
04:45 PM 52.0°F11.1°C 51.7°F10.9°C 99% 2.3 mph E3.7 kmh E 3.5 mph5.6 kmh 31.87 in1079.2 mb - 0.00 in0.0 mm 0.37 in9.4 mm
04:50 PM 52.0°F11.1°C 51.7°F10.9°C 99% 3.5 mph NE5.6 kmh NE 4.6 mph7.4 kmh 31.87 in1079.2 mb - 0.00 in0.0 mm 0.37 in9.4 mm
04:55 PM 52.0°F11.1°C 51.7°F10.9°C 99% 3.5 mph E5.6 kmh E 4.6 mph7.4 kmh 31.87 in1079.2 mb - 0.00 in0.0 mm 0.37 in9.4 mm
05:00 PM 52.0°F11.1°C 51.7°F10.9°C 99% 3.5 mph N5.6 kmh N 3.5 mph5.6 kmh 31.87 in1079.2 mb - 0.00 in0.0 mm 0.37 in9.4 mm
05:10 PM 52.2°F11.2°C 51.9°F11.1°C 99% 3.5 mph E5.6 kmh E 4.6 mph7.4 kmh 31.87 in1079.2 mb - 0.00 in0.0 mm 0.37 in9.4 mm
05:15 PM 52.2°F11.2°C 51.9°F11.1°C 99% 3.5 mph NE5.6 kmh NE 4.6 mph7.4 kmh 31.87 in1079.2 mb - 0.00 in0.0 mm 0.37 in9.4 mm
05:20 PM 52.2°F11.2°C 51.9°F11.1°C 99% 3.5 mph E5.6 kmh E 4.6 mph7.4 kmh 31.87 in1079.2 mb - 0.00 in0.0 mm 0.37 in9.4 mm
05:25 PM 52.2°F11.2°C 51.9°F11.1°C 99% 4.6 mph E7.4 kmh E 4.6 mph7.4 kmh 31.87 in1079.2 mb - 0.00 in0.0 mm 0.37 in9.4 mm
05:30 PM 52.2°F11.2°C 51.9°F11.1°C 99% 3.5 mph ENE5.6 kmh ENE 4.6 mph7.4 kmh 31.87 in1079.2 mb - 0.00 in0.0 mm 0.37 in9.4 mm
05:35 PM 52.4°F11.3°C 52.1°F11.2°C 99% 3.5 mph E5.6 kmh E 4.6 mph7.4 kmh 31.87 in1079.2 mb - 0.00 in0.0 mm 0.37 in9.4 mm
05:40 PM 52.4°F11.3°C 52.1°F11.2°C 99% 4.6 mph E7.4 kmh E 4.6 mph7.4 kmh 31.87 in1079.2 mb - 0.00 in0.0 mm 0.37 in9.4 mm
05:45 PM 52.5°F11.4°C 52.2°F11.2°C 99% 3.5 mph E5.6 kmh E 5.8 mph9.3 kmh 31.87 in1079.2 mb - 0.00 in0.0 mm 0.37 in9.4 mm
05:50 PM 52.5°F11.4°C 52.2°F11.2°C 99% 3.5 mph E5.6 kmh E 3.5 mph5.6 kmh 31.87 in1079.2 mb - 0.00 in0.0 mm 0.37 in9.4 mm
05:55 PM 52.5°F11.4°C 52.2°F11.2°C 99% 4.6 mph E7.4 kmh E 5.8 mph9.3 kmh 31.87 in1079.2 mb - 0.00 in0.0 mm 0.37 in9.4 mm
06:00 PM 52.5°F11.4°C 52.2°F11.2°C 99% 4.6 mph E7.4 kmh E 4.6 mph7.4 kmh 31.87 in1079.2 mb - 0.00 in0.0 mm 0.37 in9.4 mm
06:10 PM 52.5°F11.4°C 52.2°F11.2°C 99% 4.6 mph E7.4 kmh E 4.6 mph7.4 kmh 31.87 in1079.2 mb - 0.00 in0.0 mm 0.37 in9.4 mm
06:15 PM 52.4°F11.3°C 52.1°F11.2°C 99% 4.6 mph E7.4 kmh E 5.8 mph9.3 kmh 31.87 in1079.2 mb - 0.00 in0.0 mm 0.37 in9.4 mm
06:20 PM 52.4°F11.3°C 52.1°F11.2°C 99% 3.5 mph E5.6 kmh E 4.6 mph7.4 kmh 31.87 in1079.2 mb - 0.00 in0.0 mm 0.37 in9.4 mm
06:25 PM 52.4°F11.3°C 52.1°F11.2°C 99% 2.3 mph NE3.7 kmh NE 3.5 mph5.6 kmh 31.87 in1079.2 mb - 0.00 in0.0 mm 0.37 in9.4 mm
06:30 PM 52.4°F11.3°C 52.1°F11.2°C 99% 3.5 mph E5.6 kmh E 4.6 mph7.4 kmh 31.87 in1079.2 mb - 0.00 in0.0 mm 0.37 in9.4 mm
06:35 PM 52.2°F11.2°C 51.9°F11.1°C 99% 3.5 mph E5.6 kmh E 3.5 mph5.6 kmh 31.87 in1079.2 mb - 0.00 in0.0 mm 0.37 in9.4 mm
06:40 PM 52.2°F11.2°C 51.9°F11.1°C 99% 3.5 mph E5.6 kmh E 3.5 mph5.6 kmh 31.87 in1079.2 mb - 0.00 in0.0 mm 0.37 in9.4 mm
06:45 PM 52.2°F11.2°C 51.9°F11.1°C 99% 3.5 mph E5.6 kmh E 4.6 mph7.4 kmh 31.87 in1079.2 mb - 0.00 in0.0 mm 0.37 in9.4 mm
06:50 PM 52.0°F11.1°C 51.8°F11.0°C 99% 3.5 mph ENE5.6 kmh ENE 5.8 mph9.3 kmh 31.87 in1079.2 mb - 0.00 in0.0 mm 0.37 in9.4 mm
06:55 PM 52.0°F11.1°C 51.7°F10.9°C 99% 3.5 mph E5.6 kmh E 3.5 mph5.6 kmh 31.87 in1079.2 mb - 0.00 in0.0 mm 0.37 in9.4 mm
07:00 PM 52.0°F11.1°C 51.7°F10.9°C 99% 3.5 mph E5.6 kmh E 4.6 mph7.4 kmh 31.87 in1079.2 mb - 0.00 in0.0 mm 0.37 in9.4 mm
07:10 PM 52.0°F11.1°C 51.7°F10.9°C 99% 2.3 mph E3.7 kmh E 3.5 mph5.6 kmh 31.87 in1079.2 mb - 0.00 in0.0 mm 0.37 in9.4 mm
07:15 PM 52.0°F11.1°C 51.7°F10.9°C 99% 3.5 mph ENE5.6 kmh ENE 4.6 mph7.4 kmh 31.87 in1079.2 mb - 0.00 in0.0 mm 0.37 in9.4 mm
07:20 PM 52.0°F11.1°C 51.7°F10.9°C 99% 3.5 mph E5.6 kmh E 3.5 mph5.6 kmh 31.87 in1079.2 mb - 0.00 in0.0 mm 0.37 in9.4 mm
07:25 PM 52.0°F11.1°C 51.7°F10.9°C 99% 3.5 mph NE5.6 kmh NE 3.5 mph5.6 kmh 31.87 in1079.2 mb - 0.00 in0.0 mm 0.37 in9.4 mm
07:30 PM 52.0°F11.1°C 51.7°F10.9°C 99% 3.5 mph E5.6 kmh E 3.5 mph5.6 kmh 31.87 in1079.2 mb - 0.00 in0.0 mm 0.37 in9.4 mm
07:35 PM 51.8°F11.0°C 51.5°F10.8°C 99% 3.5 mph E5.6 kmh E 3.5 mph5.6 kmh 31.87 in1079.2 mb - 0.00 in0.0 mm 0.37 in9.4 mm
07:40 PM 51.8°F11.0°C 51.5°F10.8°C 99% 3.5 mph ENE5.6 kmh ENE 3.5 mph5.6 kmh 31.87 in1079.2 mb - 0.00 in0.0 mm 0.37 in9.4 mm
07:45 PM 51.8°F11.0°C 51.5°F10.8°C 99% 3.5 mph E5.6 kmh E 3.5 mph5.6 kmh 31.87 in1079.2 mb - 0.00 in0.0 mm 0.37 in9.4 mm
07:50 PM 51.8°F11.0°C 51.5°F10.8°C 99% 2.3 mph E3.7 kmh E 2.3 mph3.7 kmh 31.87 in1079.2 mb - 0.00 in0.0 mm 0.37 in9.4 mm
07:55 PM 51.8°F11.0°C 51.5°F10.8°C 99% 3.5 mph E5.6 kmh E 4.6 mph7.4 kmh 31.87 in1079.2 mb - 0.00 in0.0 mm 0.37 in9.4 mm
08:00 PM 51.8°F11.0°C 51.5°F10.8°C 99% 2.3 mph E3.7 kmh E 2.3 mph3.7 kmh 31.87 in1079.2 mb - 0.00 in0.0 mm 0.37 in9.4 mm
08:10 PM 52.0°F11.1°C 51.7°F10.9°C 99% 2.3 mph E3.7 kmh E 2.3 mph3.7 kmh 31.87 in1079.2 mb - 0.00 in0.0 mm 0.37 in9.4 mm
08:15 PM 52.0°F11.1°C 51.7°F10.9°C 99% 3.5 mph E5.6 kmh E 3.5 mph5.6 kmh 31.87 in1079.2 mb - 0.00 in0.0 mm 0.37 in9.4 mm
08:20 PM 52.0°F11.1°C 51.7°F10.9°C 99% 2.3 mph E3.7 kmh E 2.3 mph3.7 kmh 31.87 in1079.2 mb - 0.00 in0.0 mm 0.37 in9.4 mm
08:25 PM 52.0°F11.1°C 51.7°F10.9°C 99% 3.5 mph E5.6 kmh E 3.5 mph5.6 kmh 31.87 in1079.2 mb - 0.00 in0.0 mm 0.37 in9.4 mm
08:30 PM 52.0°F11.1°C 51.7°F10.9°C 99% 3.5 mph E5.6 kmh E 3.5 mph5.6 kmh 31.87 in1079.2 mb - 0.01 in0.3 mm 0.38 in9.7 mm
08:35 PM 52.0°F11.1°C 51.7°F10.9°C 99% 2.3 mph E3.7 kmh E 2.3 mph3.7 kmh 31.87 in1079.2 mb - 0.01 in0.3 mm 0.38 in9.7 mm
08:40 PM 52.0°F11.1°C 51.7°F10.9°C 99% 2.3 mph E3.7 kmh E 3.5 mph5.6 kmh 31.87 in1079.2 mb - 0.01 in0.3 mm 0.38 in9.7 mm
08:45 PM 52.0°F11.1°C 51.7°F10.9°C 99% 2.3 mph ENE3.7 kmh ENE 2.3 mph3.7 kmh 31.87 in1079.2 mb - 0.01 in0.3 mm 0.38 in9.7 mm
08:50 PM 52.0°F11.1°C 51.7°F10.9°C 99% 2.3 mph E3.7 kmh E 2.3 mph3.7 kmh 31.87 in1079.2 mb - 0.01 in0.3 mm 0.38 in9.7 mm
08:55 PM 52.0°F11.1°C 51.7°F10.9°C 99% 2.3 mph E3.7 kmh E 3.5 mph5.6 kmh 31.87 in1079.2 mb - 0.01 in0.3 mm 0.38 in9.7 mm
09:00 PM 52.0°F11.1°C 51.7°F10.9°C 99% 2.3 mph ENE3.7 kmh ENE 2.3 mph3.7 kmh 31.87 in1079.2 mb - 0.01 in0.3 mm 0.38 in9.7 mm
09:10 PM 52.0°F11.1°C 51.7°F10.9°C 99% 2.3 mph E3.7 kmh E 2.3 mph3.7 kmh 31.87 in1079.2 mb - 0.01 in0.3 mm 0.38 in9.7 mm
09:15 PM 52.0°F11.1°C 51.7°F10.9°C 99% 2.3 mph E3.7 kmh E 1.2 mph1.9 kmh 31.87 in1079.2 mb - 0.01 in0.3 mm 0.38 in9.7 mm
09:20 PM 52.2°F11.2°C 51.9°F11.1°C 99% 1.2 mph NE1.9 kmh NE 5.8 mph9.3 kmh 31.87 in1079.2 mb - 0.01 in0.3 mm 0.38 in9.7 mm
09:25 PM 52.2°F11.2°C 51.9°F11.1°C 99% 2.3 mph E3.7 kmh E 2.3 mph3.7 kmh 31.87 in1079.2 mb - 0.01 in0.3 mm 0.38 in9.7 mm
09:30 PM 52.2°F11.2°C 51.9°F11.1°C 99% 1.2 mph ENE1.9 kmh ENE 1.2 mph1.9 kmh 31.87 in1079.2 mb - 0.01 in0.3 mm 0.38 in9.7 mm
09:35 PM 52.2°F11.2°C 51.9°F11.1°C 99% 2.3 mph ENE3.7 kmh ENE 2.3 mph3.7 kmh 31.87 in1079.2 mb - 0.00 in0.0 mm 0.38 in9.7 mm
09:40 PM 52.2°F11.2°C 51.9°F11.1°C 99% 2.3 mph NE3.7 kmh NE 2.3 mph3.7 kmh 31.87 in1079.2 mb - 0.00 in0.0 mm 0.38 in9.7 mm
09:45 PM 52.2°F11.2°C 51.9°F11.1°C 99% 1.2 mph E1.9 kmh E 1.2 mph1.9 kmh 31.87 in1079.2 mb - 0.00 in0.0 mm 0.38 in9.7 mm
09:50 PM 52.2°F11.2°C 51.9°F11.1°C 99% 2.3 mph ENE3.7 kmh ENE 1.2 mph1.9 kmh 31.87 in1079.2 mb - 0.00 in0.0 mm 0.38 in9.7 mm
09:55 PM 52.2°F11.2°C 51.9°F11.1°C 99% 2.3 mph ENE3.7 kmh ENE 2.3 mph3.7 kmh 31.87 in1079.2 mb - 0.00 in0.0 mm 0.38 in9.7 mm
10:00 PM 52.2°F11.2°C 51.9°F11.1°C 99% 2.3 mph E3.7 kmh E 2.3 mph3.7 kmh 31.87 in1079.2 mb - 0.00 in0.0 mm 0.38 in9.7 mm
10:10 PM 52.2°F11.2°C 51.9°F11.1°C 99% 2.3 mph ENE3.7 kmh ENE 1.2 mph1.9 kmh 31.87 in1079.2 mb - 0.00 in0.0 mm 0.38 in9.7 mm
10:15 PM 52.0°F11.1°C 51.7°F10.9°C 99% 1.2 mph E1.9 kmh E 1.2 mph1.9 kmh 31.87 in1079.2 mb - 0.00 in0.0 mm 0.38 in9.7 mm
10:20 PM 51.8°F11.0°C 51.5°F10.8°C 99% 1.2 mph E1.9 kmh E 1.2 mph1.9 kmh 31.87 in1079.2 mb - 0.00 in0.0 mm 0.38 in9.7 mm
10:25 PM 51.7°F10.9°C 51.4°F10.8°C 99% 1.2 mph NE1.9 kmh NE 2.3 mph3.7 kmh 31.87 in1079.2 mb - 0.00 in0.0 mm 0.38 in9.7 mm
10:30 PM 51.6°F10.9°C 51.3°F10.7°C 99% 2.3 mph NNE3.7 kmh NNE 3.5 mph5.6 kmh 31.87 in1079.2 mb - 0.00 in0.0 mm 0.38 in9.7 mm
10:35 PM 51.6°F10.9°C 51.3°F10.7°C 99% 2.3 mph NNE3.7 kmh NNE 3.5 mph5.6 kmh 31.87 in1079.2 mb - 0.00 in0.0 mm 0.38 in9.7 mm
10:40 PM 51.6°F10.9°C 51.3°F10.7°C 99% 2.3 mph NE3.7 kmh NE 2.3 mph3.7 kmh 31.87 in1079.2 mb - 0.00 in0.0 mm 0.38 in9.7 mm
10:45 PM 51.5°F10.8°C 51.2°F10.7°C 99% 3.5 mph NE5.6 kmh NE 3.5 mph5.6 kmh 31.87 in1079.2 mb - 0.00 in0.0 mm 0.38 in9.7 mm
10:50 PM 51.5°F10.8°C 51.2°F10.7°C 99% 2.3 mph NE3.7 kmh NE 2.3 mph3.7 kmh 31.87 in1079.2 mb - 0.00 in0.0 mm 0.38 in9.7 mm
10:55 PM 51.5°F10.8°C 51.2°F10.7°C 99% 2.3 mph ENE3.7 kmh ENE 2.3 mph3.7 kmh 31.87 in1079.2 mb - 0.00 in0.0 mm 0.38 in9.7 mm
11:00 PM 51.5°F10.8°C 51.2°F10.7°C 99% 2.3 mph NE3.7 kmh NE 2.3 mph3.7 kmh 31.87 in1079.2 mb - 0.00 in0.0 mm 0.38 in9.7 mm
11:10 PM 51.3°F10.7°C 51.0°F10.6°C 99% 2.3 mph NE3.7 kmh NE 2.3 mph3.7 kmh 31.87 in1079.2 mb - 0.00 in0.0 mm 0.38 in9.7 mm
11:15 PM 51.1°F10.6°C 50.8°F10.4°C 99% 2.3 mph NE3.7 kmh NE 2.3 mph3.7 kmh 31.87 in1079.2 mb - 0.00 in0.0 mm 0.38 in9.7 mm
11:20 PM 51.1°F10.6°C 50.8°F10.4°C 99% 3.5 mph NE5.6 kmh NE 3.5 mph5.6 kmh 31.87 in1079.2 mb - 0.00 in0.0 mm 0.38 in9.7 mm
11:25 PM 51.1°F10.6°C 50.8°F10.4°C 99% 2.3 mph E3.7 kmh E 2.3 mph3.7 kmh 31.87 in1079.2 mb - 0.00 in0.0 mm 0.38 in9.7 mm
11:30 PM 51.1°F10.6°C 50.8°F10.4°C 99% 2.3 mph E3.7 kmh E 1.2 mph1.9 kmh 31.87 in1079.2 mb - 0.00 in0.0 mm 0.38 in9.7 mm
11:35 PM 51.1°F10.6°C 50.8°F10.4°C 99% 1.2 mph E1.9 kmh E 1.2 mph1.9 kmh 31.87 in1079.2 mb - 0.00 in0.0 mm 0.38 in9.7 mm
11:40 PM 51.1°F10.6°C 50.8°F10.4°C 99% 2.3 mph E3.7 kmh E 2.3 mph3.7 kmh 31.87 in1079.2 mb - 0.00 in0.0 mm 0.38 in9.7 mm
11:45 PM 51.1°F10.6°C 50.8°F10.4°C 99% 1.2 mph ENE1.9 kmh ENE 1.2 mph1.9 kmh 31.87 in1079.2 mb - 0.00 in0.0 mm 0.38 in9.7 mm
11:50 PM 51.1°F10.6°C 50.8°F10.4°C 99% 1.2 mph ENE1.9 kmh ENE 1.2 mph1.9 kmh 31.87 in1079.2 mb - 0.00 in0.0 mm 0.38 in9.7 mm
11:55 PM 51.1°F10.6°C 50.8°F10.4°C 99% 1.2 mph ENE1.9 kmh ENE 1.2 mph1.9 kmh 31.87 in1079.2 mb - 0.00 in0.0 mm 0.38 in9.7 mm